Big Lake, Indiana
Current Conditions -  °F | °C
As of 3:54 PM on Monday 24 Nov 2014 (Local Time) from KFWA Reporting Station
Overcast Overcast  
Wind Chill: 22°   Ceiling: 2400
Heat Index: 36°   Visibility: 10mi
Dew Point: 29°   Wind: 33mph
Humidity: 76%   Direction: 240°WSW
Pressure: 29.57"   Gusts: 47mph
Location:  41.1479°N, 85.4772°W
Report Text: KFWA 242054Z 24029G41KT 10SM OVC024 02/M02 A2957 RMK AO2 PK WND 24048/2014 SLP015 T00221017 51054
Loading
Personal Weather Stations






























Interactive Weather Map New forecast layout! Learn more

10-Day Weather Forecast

Advertisements
Track Severe Weather on mobile